Time;durP1;ratioP1;P1;durP2;ratioP2;P2;SDS_P1;SDS_P2;PMS_P1;PMS_P2;Temp;Humidity;BMP_temperature;BMP_pressure;BME280_temperature;BME280_humidity;BME280_pressure;Samples;Min_cycle;Max_cycle;Signal;HPM_P1;HPM_P2
2022/01/20 00:04:14;;;;;;;10.15;7.63;;;;;;;4.31;100.00;101017.56;4966737;28;20813;-95
2022/01/20 00:28:38;;;;;;;9.40;7.15;;;;;;;4.29;98.84;101045.56;4969030;28;20047;-95
2022/01/20 00:33:53;;;;;;;11.30;7.95;;;;;;;3.93;99.76;100997.91;4967590;28;20053;-95
2022/01/20 00:39:08;;;;;;;9.70;7.82;;;;;;;3.97;99.68;101004.84;4974323;28;20113;-94
2022/01/20 00:41:35;;;;;;;12.27;8.02;;;;;;;4.09;100.00;101030.06;4972016;28;20046;-95
2022/01/20 00:44:16;;;;;;;12.50;8.05;;;;;;;4.12;100.00;101017.78;4972765;28;20058;-96
2022/01/20 00:46:57;;;;;;;;;;;;;;;4.31;99.55;101051.66;4974889;28;20070;-96
2022/01/20 00:49:32;;;;;;;11.07;7.85;;;;;;;4.14;100.00;101020.38;4968873;28;19929;-95
2022/01/20 00:52:03;;;;;;;11.13;7.28;;;;;;;4.11;100.00;101021.28;4970122;28;20577;-95
2022/01/20 00:54:32;;;;;;;11.80;7.93;;;;;;;4.10;99.68;101001.19;4966351;28;20072;-95
2022/01/20 00:57:13;;;;;;;12.20;7.68;;;;;;;4.21;100.00;101027.31;4970921;28;20193;-94
2022/01/20 00:59:56;;;;;;;11.13;8.32;;;;;;;4.18;99.76;101027.34;4971563;28;20054;-96
2022/01/20 01:02:25;;;;;;;9.80;7.55;;;;;;;4.34;99.81;101059.50;4963104;28;20556;-96
2022/01/20 01:04:57;;;;;;;11.00;7.75;;;;;;;4.22;99.63;101023.81;4957501;28;20062;-95
2022/01/20 01:10:13;;;;;;;10.63;7.10;;;;;;;4.14;98.82;101008.16;4969913;28;19926;-94
2022/01/20 01:13:06;;;;;;;9.85;7.25;;;;;;;3.81;99.50;100980.53;4966987;28;20055;-95
2022/01/20 01:15:52;;;;;;;10.73;7.53;;;;;;;4.08;100.00;101041.44;4986747;28;20045;-95
2022/01/20 01:21:44;;;;;;;11.15;7.60;;;;;;;3.82;100.00;101034.69;4980326;28;20050;-95
2022/01/20 01:24:15;;;;;;;11.25;8.02;;;;;;;3.64;100.00;100999.91;4975569;28;20623;-95
2022/01/20 01:26:49;;;;;;;13.85;7.80;;;;;;;3.90;100.00;101039.00;4978117;28;20720;-95
2022/01/20 01:32:50;;;;;;;13.95;8.90;;;;;;;3.87;100.00;101037.25;4958433;28;20086;-96
2022/01/20 01:35:33;;;;;;;11.57;8.13;;;;;;;3.63;100.00;100992.94;4983347;28;20127;-96
2022/01/20 01:40:45;;;;;;;12.35;8.30;;;;;;;3.83;100.00;101025.94;4985115;28;20038;-96
2022/01/20 01:43:24;;;;;;;11.05;7.90;;;;;;;3.77;100.00;101010.28;4983195;28;20064;-96
2022/01/20 01:45:57;;;;;;;10.70;7.25;;;;;;;3.63;100.00;100990.31;4985513;28;20050;-96
2022/01/20 01:48:28;;;;;;;12.45;7.18;;;;;;;3.66;100.00;101009.50;4984835;28;20047;-96
2022/01/20 01:50:56;;;;;;;13.55;7.63;;;;;;;3.55;100.00;100993.03;4970818;28;20043;-96
2022/01/20 01:53:24;;;;;;;14.77;7.70;;;;;;;3.74;100.00;101027.78;4977067;28;20426;-96
2022/01/20 01:55:53;;;;;;;10.00;6.70;;;;;;;3.51;100.00;101017.50;4975788;28;20051;-96
2022/01/20 01:58:21;;;;;;;13.98;7.13;;;;;;;3.65;100.00;101036.56;4985007;28;20098;-96
2022/01/20 02:00:53;;;;;;;11.30;7.43;;;;;;;3.66;100.00;101035.69;4985842;28;20051;-96
2022/01/20 02:03:20;;;;;;;16.77;7.95;;;;;;;3.50;100.00;101016.63;4973679;28;20050;-95
2022/01/20 02:19:26;;;;;;;14.80;7.88;;;;;;;3.58;100.00;101003.47;4975304;28;20051;-95
2022/01/20 02:22:02;;;;;;;15.23;7.88;;;;;;;3.80;99.96;101039.06;4967212;28;20074;-95
2022/01/20 02:24:30;;;;;;;13.40;7.47;;;;;;;3.87;100.00;101053.84;4968495;28;20942;-95
2022/01/20 02:27:02;;;;;;;15.30;7.28;;;;;;;3.63;99.89;101017.38;4969300;28;20046;-95
2022/01/20 02:29:35;;;;;;;13.30;7.30;;;;;;;3.79;100.00;101039.94;4971036;28;20051;-96
2022/01/20 02:32:09;;;;;;;17.27;7.63;;;;;;;3.75;99.71;101013.81;4969928;28;20494;-96
2022/01/20 02:34:39;;;;;;;16.80;7.75;;;;;;;3.91;99.55;101033.75;4969188;28;20050;-95
2022/01/20 02:37:10;;;;;;;13.15;7.22;;;;;;;3.81;99.69;101004.13;4970079;28;20493;-95
2022/01/20 02:40:02;;;;;;;13.52;6.88;;;;;;;3.93;99.29;101015.38;4969115;28;20758;-95
2022/01/20 02:45:28;;;;;;;14.93;6.90;;;;;;;4.09;98.58;101038.78;4964244;28;20055;-96
2022/01/20 02:48:09;;;;;;;15.10;7.15;;;;;;;3.99;98.56;101025.78;4970005;28;20051;-96
2022/01/20 02:50:40;;;;;;;15.38;7.53;;;;;;;3.99;98.90;101031.03;4966130;28;20049;-96
2022/01/20 02:53:11;;;;;;;15.15;6.65;;;;;;;3.82;98.50;101013.72;4966794;28;20065;-96
2022/01/20 02:55:42;;;;;;;15.07;7.53;;;;;;;3.79;98.69;101012.88;4966805;28;20105;-95
2022/01/20 02:58:10;;;;;;;20.95;7.50;;;;;;;4.04;98.68;101068.56;4980746;28;20053;-95
2022/01/20 03:00:38;;;;;;;17.25;7.20;;;;;;;3.82;99.04;101046.91;4965719;28;20129;-95
2022/01/20 03:03:07;;;;;;;17.35;6.65;;;;;;;3.80;97.85;101015.47;4969128;28;20051;-95
2022/01/20 03:05:36;;;;;;;16.23;7.05;;;;;;;3.77;98.11;101018.16;4966230;28;20482;-94
2022/01/20 03:08:05;;;;;;;20.05;7.78;;;;;;;3.70;98.08;101011.22;4964512;28;20525;-95
2022/01/20 03:10:32;;;;;;;18.95;7.85;;;;;;;3.85;97.68;101052.13;4969617;28;20144;-95
2022/01/20 03:12:59;;;;;;;25.33;8.52;;;;;;;3.59;97.72;101013.06;4972257;28;20061;-95
2022/01/20 03:15:44;;;;;;;25.85;8.18;;;;;;;3.64;98.40;101042.69;4982389;28;20059;-94
2022/01/20 03:18:18;;;;;;;14.25;7.38;;;;;;;3.64;99.10;101050.56;4988024;28;20050;-96
2022/01/20 03:20:47;;;;;;;23.70;8.05;;;;;;;3.35;98.33;101031.59;4969167;28;20090;-95
2022/01/20 03:23:34;;;;;;;;;;;;;;;;;;;;;
2022/01/20 03:26:04;;;;;;;25.13;8.43;;;;;;;3.43;98.41;101033.28;4966772;28;20093;-96
2022/01/20 03:28:35;;;;;;;20.75;8.55;;;;;;;3.37;97.54;101017.59;4969662;28;20515;-95
2022/01/20 03:31:03;;;;;;;21.73;8.93;;;;;;;3.64;97.95;101089.84;4970925;28;20151;-96
2022/01/20 03:33:35;;;;;;;25.08;8.50;;;;;;;3.64;97.02;101096.81;4971871;28;20051;-96
2022/01/20 03:36:06;;;;;;;24.85;8.18;;;;;;;3.46;96.24;101061.19;4971389;28;20054;-96
2022/01/20 03:38:38;;;;;;;21.58;8.18;;;;;;;3.39;94.69;101033.31;4949991;28;20050;-96
2022/01/20 03:41:15;;;;;;;22.20;7.25;;;;;;;3.66;92.59;101061.88;4974706;28;20058;-95
2022/01/20 03:43:44;;;;;;;24.00;7.67;;;;;;;3.51;92.81;101052.41;4971119;28;20053;-96
2022/01/20 03:46:20;;;;;;;19.70;7.22;;;;;;;3.46;91.19;101024.53;4970282;28;20071;-96
2022/01/20 03:48:55;;;;;;;24.38;7.35;;;;;;;3.57;90.99;101041.03;4981861;28;20070;-94
2022/01/20 03:51:28;;;;;;;20.40;7.33;;;;;;;3.70;90.20;101054.88;4979096;28;20055;-95
2022/01/20 03:53:58;;;;;;;24.83;8.20;;;;;;;3.81;89.82;101079.22;4980497;28;20494;-96
2022/01/20 03:56:32;;;;;;;20.08;7.15;;;;;;;3.68;89.49;101057.50;4968884;28;20074;-96
2022/01/20 03:59:21;;;;;;;28.50;7.43;;;;;;;3.56;88.57;101031.44;4980457;28;20075;-95
2022/01/20 04:01:47;;;;;;;23.45;7.55;;;;;;;3.59;88.60;101030.53;4974423;28;20074;-95
2022/01/20 04:04:16;;;;;;;20.10;7.70;;;;;;;3.82;88.74;101089.69;4979508;28;20051;-95
2022/01/20 04:06:52;;;;;;;27.02;7.53;;;;;;;3.67;89.33;101060.13;4959654;28;20146;-96
2022/01/20 04:09:23;;;;;;;22.50;7.68;;;;;;;3.71;89.69;101085.44;4975386;28;20096;-93
2022/01/20 04:11:51;;;;;;;24.70;7.93;;;;;;;3.37;90.52;101035.06;4974078;28;20043;-95
2022/01/20 04:14:22;;;;;;;24.52;8.30;;;;;;;3.60;90.83;101089.91;4972395;28;20655;-95
2022/01/20 04:17:04;;;;;;;31.23;8.13;;;;;;;3.22;91.36;101029.94;4972969;28;20130;-96
2022/01/20 04:19:34;;;;;;;22.40;7.50;;;;;;;3.22;91.78;101029.94;4970178;28;20066;-94
2022/01/20 04:22:03;;;;;;;23.50;7.82;;;;;;;3.19;91.46;101022.97;4957410;28;20060;-95
2022/01/20 04:24:32;;;;;;;18.33;7.88;;;;;;;3.37;91.92;101064.72;4970066;28;20050;-95
2022/01/20 04:27:01;;;;;;;27.13;7.93;;;;;;;3.15;92.04;101029.09;4971812;28;20609;-94
2022/01/20 04:29:28;;;;;;;28.65;8.23;;;;;;;3.45;91.90;101072.53;4972615;28;20051;-96
2022/01/20 04:32:02;;;;;;;21.75;8.75;;;;;;;3.11;91.65;101020.41;4970603;28;20051;-95
2022/01/20 04:34:33;;;;;;;28.75;8.80;;;;;;;3.04;92.57;101010.88;4970095;28;20079;-95
2022/01/20 04:37:07;;;;;;;18.95;7.53;;;;;;;3.25;92.85;101043.00;4979944;28;20082;-96
2022/01/20 04:39:44;;;;;;;21.63;7.22;;;;;;;3.25;92.34;101038.66;4974695;28;20550;-96
2022/01/20 04:42:12;;;;;;;25.58;7.75;;;;;;;2.99;92.55;100993.47;4978135;28;20058;-95
2022/01/20 04:58:55;;;;;;;21.25;7.43;;;;;;;3.14;92.06;100983.78;4986113;28;20122;-94
2022/01/20 05:01:30;;;;;;;31.75;7.80;;;;;;;3.34;91.75;100998.44;4973060;28;20047;-95
2022/01/20 05:04:02;;;;;;;18.85;6.88;;;;;;;3.68;90.66;101043.53;4979117;28;20049;-95
2022/01/20 05:06:45;;;;;;;26.35;7.53;;;;;;;3.34;90.22;100982.72;4977074;28;20051;-95
2022/01/20 05:09:18;;;;;;;15.70;6.25;;;;;;;3.65;89.78;101025.22;4981521;28;20062;-96
2022/01/20 05:12:11;;;;;;;23.08;6.72;;;;;;;3.45;89.40;100991.38;4971188;28;20049;-96
2022/01/20 05:14:38;;;;;;;24.80;7.05;;;;;;;3.39;89.47;100981.81;4964738;28;21075;-96
2022/01/20 05:17:11;;;;;;;23.83;7.78;;;;;;;3.48;89.92;100994.81;4964050;28;20043;-94
2022/01/20 05:19:39;;;;;;;19.48;8.02;;;;;;;3.49;90.08;100993.94;4960939;28;20147;-96
2022/01/20 05:22:07;;;;;;;22.70;7.72;;;;;;;3.56;89.78;101010.47;4966339;28;20057;-95
2022/01/20 05:24:42;;;;;;;23.70;7.80;;;;;;;3.66;90.60;101047.91;4966350;28;20047;-93
2022/01/20 05:27:11;;;;;;;24.52;7.90;;;;;;;3.34;90.53;100993.19;4970914;28;20521;-94
2022/01/20 05:29:58;;;;;;;;;;;;;;;;;;;;;
2022/01/20 05:32:43;;;;;;;23.80;5.97;;;;;;;3.32;91.61;101010.66;4958410;28;20078;-95
2022/01/20 05:35:15;;;;;;;24.33;6.43;;;;;;;3.63;91.88;101064.53;4969361;28;20055;-96
2022/01/20 05:37:50;;;;;;;22.02;6.93;;;;;;;3.63;92.00;101071.50;4972812;28;20052;-95
2022/01/20 05:43:10;;;;;;;24.40;6.50;;;;;;;3.55;93.46;101047.16;4969054;28;20054;-94
2022/01/20 05:45:42;;;;;;;23.48;6.68;;;;;;;3.50;94.37;101047.19;4969572;28;20082;-93
2022/01/20 05:48:31;;;;;;;23.00;5.38;;;;;;;3.29;95.92;101018.56;4973438;28;20541;-95
2022/01/20 05:51:01;;;;;;;19.80;5.45;;;;;;;3.36;98.00;101028.09;4963019;28;20137;-95
2022/01/20 05:53:31;;;;;;;21.02;4.90;;;;;;;3.22;98.23;101028.19;4954132;28;20466;-96
2022/01/20 05:56:01;;;;;;;17.90;5.13;;;;;;;3.20;100.00;101047.41;4974396;28;20070;-95
2022/01/20 05:58:33;;;;;;;17.95;4.70;;;;;;;3.18;100.00;101073.56;4967827;28;20913;-95
2022/01/20 06:01:06;;;;;;;26.15;5.68;;;;;;;2.99;100.00;101036.16;4965963;28;20086;-95
2022/01/20 06:03:37;;;;;;;21.02;6.07;;;;;;;2.76;100.00;101002.31;4986928;28;20055;-96
2022/01/20 06:06:25;;;;;;;27.15;7.72;;;;;;;3.09;100.00;101058.81;4962586;28;20340;-96
2022/01/20 06:08:52;;;;;;;25.63;7.53;;;;;;;2.93;100.00;101027.50;4967726;28;21552;-95
2022/01/20 06:11:20;;;;;;;31.33;8.93;;;;;;;2.92;100.00;101038.84;4969369;28;20106;-94
2022/01/20 06:13:54;;;;;;;22.35;8.65;;;;;;;2.81;100.00;101031.06;4962289;28;20454;-95
2022/01/20 06:16:22;;;;;;;29.05;8.60;;;;;;;3.00;100.00;101045.75;4974464;28;20039;-95
2022/01/20 06:18:52;;;;;;;37.15;9.45;;;;;;;2.96;100.00;101030.13;4967086;28;20039;-95
2022/01/20 06:21:21;;;;;;;30.35;8.63;;;;;;;3.17;100.00;101058.75;4954015;28;20050;-93
2022/01/20 06:23:52;;;;;;;28.52;8.20;;;;;;;3.15;100.00;101061.38;4973119;28;20063;-95
2022/01/20 06:26:20;;;;;;;24.58;6.55;;;;;;;3.08;100.00;101036.13;4965294;28;20118;-95
2022/01/20 06:28:47;;;;;;;23.40;6.53;;;;;;;2.99;100.00;101023.09;4965890;28;20061;-95
2022/01/20 06:31:16;;;;;;;28.05;7.18;;;;;;;3.02;100.00;101030.94;4973324;28;20488;-96
2022/01/20 06:33:47;;;;;;;26.88;7.15;;;;;;;2.98;100.00;101026.63;4954903;28;20073;-96
2022/01/20 06:36:17;;;;;;;29.02;6.18;;;;;;;2.92;100.00;100999.59;4958689;28;20058;-96
2022/01/20 06:38:44;;;;;;;30.60;5.32;;;;;;;3.19;100.00;101054.38;4982300;28;20058;-96
2022/01/20 06:41:38;;;;;;;24.35;4.80;;;;;;;2.87;100.00;101006.59;4982427;28;20486;-95
2022/01/20 06:44:29;;;;;;;25.45;5.00;;;;;;;3.18;100.00;101056.13;5585744;23;20110;-96
2022/01/20 06:50:08;;;;;;;21.17;4.72;;;;;;;3.05;100.00;101023.06;5644119;23;20077;-95
2022/01/20 06:58:52;;;;;;;14.00;3.72;;;;;;;3.44;99.62;101082.16;4971718;28;20050;-96
2022/01/20 07:06:42;;;;;;;19.73;4.43;;;;;;;3.45;99.56;101086.50;5338594;23;20121;-93
2022/01/20 07:09:11;;;;;;;22.08;4.00;;;;;;;3.26;99.81;101065.69;4990922;28;20050;-93
2022/01/20 07:11:40;;;;;;;24.33;4.90;;;;;;;3.28;100.00;101079.63;4984588;28;20043;-93
2022/01/20 07:14:31;;;;;;;18.40;3.90;;;;;;;3.23;100.00;101079.66;4990159;28;20050;-95
2022/01/20 07:17:06;;;;;;;20.25;4.20;;;;;;;3.21;100.00;101076.19;4987622;28;20057;-94
2022/01/20 07:19:33;;;;;;;21.70;4.40;;;;;;;3.44;99.78;101110.06;4994757;28;20050;-96
2022/01/20 07:22:47;;;;;;;17.75;3.83;;;;;;;3.25;99.13;101087.50;4994844;28;20724;-96
2022/01/20 07:25:15;;;;;;;18.35;3.47;;;;;;;3.05;99.78;101056.22;4976125;28;20109;-93
2022/01/20 07:28:00;;;;;;;15.20;3.40;;;;;;;3.29;99.04;101099.69;4972360;28;20172;-93
2022/01/20 07:30:44;;;;;;;19.33;3.20;;;;;;;3.18;98.87;101095.38;4971819;28;20058;-96
2022/01/20 07:33:14;;;;;;;15.68;3.63;;;;;;;3.20;98.64;101094.50;4988712;28;20042;-95
2022/01/20 07:35:41;;;;;;;15.85;3.78;;;;;;;3.27;99.11;101122.41;4951994;28;20110;-95
2022/01/20 07:38:12;;;;;;;17.33;3.95;;;;;;;2.90;99.54;101072.88;4984626;28;20050;-95
2022/01/20 07:40:55;;;;;;;15.15;3.05;;;;;;;2.93;100.00;101080.69;4982163;28;20058;-96
2022/01/20 07:43:36;;;;;;;19.05;3.40;;;;;;;2.88;100.00;101077.22;5016404;23;20497;-96
2022/01/20 07:46:19;;;;;;;13.05;3.00;;;;;;;3.19;100.00;101119.81;4965522;28;20085;-96
2022/01/20 07:48:48;;;;;;;19.00;3.35;;;;;;;2.96;100.00;101090.28;4970907;28;20058;-96
2022/01/20 07:51:17;;;;;;;17.77;4.38;;;;;;;3.13;100.00;101115.50;4964185;28;20042;-96
2022/01/20 07:54:56;;;;;;;19.00;4.15;;;;;;;2.97;100.00;101103.38;4913396;29;20051;-94
2022/01/20 07:57:24;;;;;;;17.98;3.40;;;;;;;3.13;100.00;101131.19;4928509;29;20067;-96
2022/01/20 08:04:36;;;;;;;24.55;3.90;;;;;;;3.14;100.00;101117.22;4898405;29;19926;-95
2022/01/20 08:07:07;;;;;;;10.73;2.50;;;;;;;3.42;100.00;101136.25;4887083;29;20057;-96
2022/01/20 08:13:05;;;;;;;12.73;2.90;;;;;;;3.28;99.91;101134.59;4876979;29;20060;-95
2022/01/20 08:15:36;;;;;;;9.82;2.20;;;;;;;3.17;99.61;101117.19;4890042;29;20052;-95
2022/01/20 08:18:07;;;;;;;6.53;1.67;;;;;;;3.07;100.00;101133.81;4909526;29;20044;-96
2022/01/20 08:20:46;;;;;;;7.50;2.13;;;;;;;3.25;100.00;101189.59;4930556;28;20047;-94
2022/01/20 08:23:49;;;;;;;10.68;2.35;;;;;;;3.02;100.00;101176.56;4885552;29;20040;-94
2022/01/20 08:32:19;;;;;;;15.98;3.40;;;;;;;2.92;100.00;101177.50;4986206;28;20043;-95
2022/01/20 08:35:09;;;;;;;13.23;2.83;;;;;;;3.24;100.00;101209.66;4978632;28;20027;-95
2022/01/20 08:41:31;;;;;;;13.98;3.50;;;;;;;3.37;100.00;101179.91;4971855;28;20102;-95
2022/01/20 08:47:42;;;;;;;12.40;3.55;;;;;;;3.50;100.00;101220.88;4965435;28;20050;-95
2022/01/20 08:50:59;;;;;;;12.00;3.70;;;;;;;3.52;100.00;101221.72;4971718;28;20038;-93
2022/01/20 08:56:53;;;;;;;9.98;2.83;;;;;;;3.58;100.00;101227.81;5837648;23;20031;-96
2022/01/20 08:59:34;;;;;;;10.02;3.50;;;;;;;3.14;100.00;101187.03;5107572;23;20074;-95
2022/01/20 09:02:28;;;;;;;9.68;3.47;;;;;;;3.15;100.00;101189.59;4872821;29;20105;-94
2022/01/20 09:05:00;;;;;;;10.60;3.53;;;;;;;3.32;100.00;101201.75;4877259;29;20052;-95
2022/01/20 09:07:29;;;;;;;6.10;2.22;;;;;;;3.75;100.00;101245.19;4872660;29;20056;-96
2022/01/20 09:09:59;;;;;;;6.72;2.33;;;;;;;3.64;98.10;101215.56;4872119;29;20160;-95
2022/01/20 09:17:50;;;;;;;6.15;1.67;;;;;;;3.57;99.78;101261.00;4869268;29;20057;-96
2022/01/20 09:20:18;;;;;;;8.85;2.15;;;;;;;3.52;98.48;101266.25;4856402;29;20041;-96
2022/01/20 09:22:48;;;;;;;5.70;1.77;;;;;;;3.27;98.67;101242.81;4869552;29;20457;-94
2022/01/20 09:25:15;;;;;;;10.63;1.90;;;;;;;3.29;97.63;101247.16;4872005;29;20064;-95
2022/01/20 09:27:43;;;;;;;11.75;2.08;;;;;;;3.42;97.23;101246.22;4874904;29;20065;-95
2022/01/20 09:30:17;;;;;;;7.55;1.70;;;;;;;3.35;95.76;101207.84;4875009;29;20061;-95
2022/01/20 09:32:57;;;;;;;8.13;2.15;;;;;;;3.78;93.67;101260.00;4883391;29;20111;-94
2022/01/20 09:35:33;;;;;;;14.18;2.30;;;;;;;4.28;91.95;101287.66;4930484;29;20333;-93
2022/01/20 09:38:01;;;;;;;8.52;2.08;;;;;;;4.37;90.84;101266.63;4924012;29;20051;-93
2022/01/20 09:40:36;;;;;;;9.02;2.10;;;;;;;4.46;89.46;101275.28;4919830;29;20134;-95
2022/01/20 09:43:07;;;;;;;6.35;2.15;;;;;;;4.42;91.87;101267.44;4926047;29;20067;-93
2022/01/20 09:45:34;;;;;;;7.00;1.95;;;;;;;4.51;89.29;101294.47;4926547;29;20056;-92
2022/01/20 09:48:01;;;;;;;5.75;1.70;;;;;;;4.21;89.35;101261.50;4911298;29;20561;-93
2022/01/20 09:50:47;;;;;;;7.75;2.00;;;;;;;4.48;87.46;101318.09;4916536;29;20082;-94
2022/01/20 09:53:16;;;;;;;8.38;1.73;;;;;;;4.37;88.86;101291.09;4929707;29;20087;-92
2022/01/20 09:55:46;;;;;;;11.23;2.03;;;;;;;4.64;91.38;101307.50;4933681;29;20229;-94
2022/01/20 09:58:16;;;;;;;11.93;2.10;;;;;;;5.18;92.90;101335.88;4926306;29;20058;-94
2022/01/20 10:00:46;;;;;;;8.15;2.20;;;;;;;5.24;88.70;101278.03;4930837;29;20055;-93
2022/01/20 10:03:16;;;;;;;6.63;1.83;;;;;;;5.68;81.24;101320.41;4933024;29;20067;-94
2022/01/20 10:05:52;;;;;;;11.90;2.10;;;;;;;5.61;76.00;101330.16;4930008;29;20048;-95
2022/01/20 10:08:24;;;;;;;5.47;1.10;;;;;;;5.62;76.47;101338.00;4927065;29;20051;-93
2022/01/20 10:11:01;;;;;;;4.63;1.48;;;;;;;5.31;73.39;101310.34;4931318;29;20372;-94
2022/01/20 10:13:32;;;;;;;6.57;1.30;;;;;;;5.20;70.42;101312.19;4934115;29;20095;-94
2022/01/20 10:16:18;;;;;;;8.70;1.65;;;;;;;5.37;68.82;101335.66;4934878;29;20108;-93
2022/01/20 10:19:00;;;;;;;6.28;1.30;;;;;;;5.18;66.70;101316.63;5047655;23;20030;-94
2022/01/20 10:21:38;;;;;;;5.65;1.50;;;;;;;5.10;67.46;101345.56;4960294;28;20123;-93
2022/01/20 10:24:12;;;;;;;9.63;1.73;;;;;;;5.01;68.22;101357.91;4945823;29;20058;-93
2022/01/20 10:26:51;;;;;;;6.70;1.48;;;;;;;4.96;68.73;101350.06;5410143;23;20085;-94
2022/01/20 10:29:20;;;;;;;4.85;1.00;;;;;;;5.02;69.38;101350.03;5198052;23;20077;-94
2022/01/20 10:32:16;;;;;;;8.48;1.88;;;;;;;4.70;70.10;101278.59;4976839;28;20047;-96
2022/01/20 10:34:44;;;;;;;7.53;1.70;;;;;;;4.73;70.64;101274.16;4976955;28;20062;-95
2022/01/20 10:37:18;;;;;;;6.22;1.25;;;;;;;4.81;69.76;101277.59;4972690;28;20457;-95
2022/01/20 10:39:47;;;;;;;10.05;2.28;;;;;;;4.89;69.50;101295.88;4976570;28;20046;-94
2022/01/20 10:42:43;;;;;;;12.68;2.10;;;;;;;5.12;69.39;101335.91;4975132;28;20049;-95
2022/01/20 10:45:27;;;;;;;10.15;1.70;;;;;;;4.94;68.57;101310.72;4949055;28;20086;-94
2022/01/20 10:47:57;;;;;;;13.32;2.20;;;;;;;5.00;68.51;101328.16;4972698;28;20043;-95
2022/01/20 10:50:29;;;;;;;12.10;1.75;;;;;;;4.85;65.79;101308.19;4973218;28;20054;-94
2022/01/20 10:52:56;;;;;;;7.65;1.73;;;;;;;5.03;67.13;101343.03;4950634;28;20144;-95
2022/01/20 10:55:34;;;;;;;5.05;1.23;;;;;;;4.86;65.87;101322.19;4951462;28;20101;-94
2022/01/20 10:58:22;;;;;;;8.90;1.77;;;;;;;4.98;66.16;101357.94;4964452;28;20455;-95
2022/01/20 11:00:53;;;;;;;9.57;2.05;;;;;;;4.97;67.80;101358.81;4965637;28;20105;-96
2022/01/20 11:03:28;;;;;;;7.50;1.70;;;;;;;4.96;68.11;101360.56;4962410;28;20197;-96
2022/01/20 11:05:58;;;;;;;12.70;2.30;;;;;;;4.58;70.04;101296.16;4973034;28;21484;-94
2022/01/20 11:08:26;;;;;;;8.90;2.08;;;;;;;4.73;70.16;101326.63;4971473;28;20043;-93
2022/01/20 11:10:54;;;;;;;10.95;2.03;;;;;;;4.76;70.26;101329.25;4954587;28;20047;-95
2022/01/20 11:13:29;;;;;;;7.40;1.95;;;;;;;4.77;69.33;101327.47;4967117;28;20043;-95
2022/01/20 11:16:03;;;;;;;4.88;1.80;;;;;;;4.97;69.42;101350.94;4954097;28;20043;-95
2022/01/20 11:18:42;;;;;;;7.25;2.42;;;;;;;4.99;69.13;101333.44;4969320;28;20058;-95
2022/01/20 11:21:25;;;;;;;10.30;2.40;;;;;;;5.29;68.40;101344.50;4973190;28;20475;-93
2022/01/20 11:23:57;;;;;;;10.50;2.08;;;;;;;4.89;67.58;101286.25;4972532;28;20043;-95
2022/01/20 11:26:25;;;;;;;10.25;2.00;;;;;;;4.91;66.53;101281.00;4952802;28;20065;-95
2022/01/20 11:28:59;;;;;;;9.73;1.77;;;;;;;5.22;67.02;101323.56;4953781;28;20075;-95
2022/01/20 11:31:35;;;;;;;8.68;1.88;;;;;;;5.40;64.84;101348.75;4977640;28;20047;-95
2022/01/20 11:34:23;;;;;;;6.97;1.63;;;;;;;4.97;63.06;101282.69;5024094;23;20065;-95
2022/01/20 11:37:25;;;;;;;;;;;;;;;;;;;;;
2022/01/20 11:40:20;;;;;;;11.48;1.73;;;;;;;5.32;63.90;101322.59;5366302;23;20069;-94
2022/01/20 11:52:02;;;;;;;5.63;1.73;;;;;;;5.74;59.31;101337.00;5610500;23;21645;-96
2022/01/20 11:57:35;;;;;;;6.82;1.75;;;;;;;5.67;55.60;101337.94;5700020;23;20024;-95
2022/01/20 12:00:41;;;;;;;9.30;1.77;;;;;;;5.40;55.77;101315.50;5116709;23;20067;-95
2022/01/20 12:03:30;;;;;;;8.65;1.75;;;;;;;5.35;56.29;101316.44;5193046;23;20797;-95
2022/01/20 12:06:22;;;;;;;8.73;1.70;;;;;;;5.12;56.16;101288.66;4963497;28;20055;-95
2022/01/20 12:12:32;;;;;;;7.30;1.60;;;;;;;4.97;56.80;101286.19;4966562;28;20057;-95
2022/01/20 12:15:14;;;;;;;6.55;1.20;;;;;;;4.95;58.63;101311.59;4963343;28;20065;-96
2022/01/20 12:18:15;;;;;;;5.35;1.40;;;;;;;5.06;59.49;101358.72;4956762;28;20051;-95
2022/01/20 12:21:01;;;;;;;12.35;2.80;;;;;;;4.71;60.28;101322.31;4962886;28;20039;-96
2022/01/20 12:23:38;;;;;;;;;;;;;;;;;;;;;
2022/01/20 12:26:05;;;;;;;7.47;1.73;;;;;;;4.71;61.92;101349.41;4960945;28;20043;-96
2022/01/20 12:54:41;;;;;;;4.03;1.25;;;;;;;5.03;60.45;101312.41;4981942;23;20066;-94
2022/01/20 13:00:31;;;;;;;10.00;1.48;;;;;;;5.08;60.59;101381.47;5009012;23;19937;-95
2022/01/20 13:03:04;;;;;;;6.53;1.25;;;;;;;4.83;60.80;101348.44;4984313;28;20137;-93
2022/01/20 13:05:46;;;;;;;7.65;1.80;;;;;;;4.78;61.12;101356.34;4987373;28;20070;-95
2022/01/20 13:09:12;;;;;;;9.32;1.77;;;;;;;4.94;61.64;101372.84;5494385;23;20058;31
2022/01/20 13:14:35;;;;;;;5.53;1.50;;;;;;;4.46;63.41;101301.50;4930110;29;20208;-94
2022/01/20 13:17:06;;;;;;;10.32;1.60;;;;;;;4.57;65.74;101309.28;4930383;29;20111;-94
2022/01/20 13:19:50;;;;;;;8.65;1.70;;;;;;;4.83;66.81;101369.44;4924767;29;20129;-93
2022/01/20 13:22:38;;;;;;;6.60;1.65;;;;;;;4.56;67.96;101328.56;4934211;29;20040;-92
2022/01/20 13:25:37;;;;;;;7.18;1.98;;;;;;;4.37;69.37;101304.19;4887900;29;20048;-93
2022/01/20 13:31:23;;;;;;;5.53;1.70;;;;;;;4.06;71.32;101300.03;5613471;23;20195;-93
2022/01/20 13:37:16;;;;;;;9.27;1.80;;;;;;;4.31;70.74;101326.97;5273205;23;20078;-93
2022/01/20 13:40:02;;;;;;;7.65;1.70;;;;;;;4.43;70.85;101350.47;4906424;29;20052;-95
2022/01/20 13:44:59;;;;;;;6.78;1.50;;;;;;;4.47;71.69;101362.69;4911678;29;20051;-96
2022/01/20 13:45:52;;;;;;;5.75;1.45;;;;;;;4.56;70.17;101358.25;4915306;29;20056;-92
2022/01/20 13:49:19;;;;;;;5.25;1.00;;;;;;;4.48;67.86;101314.59;4917799;29;20056;-93
2022/01/20 13:52:24;;;;;;;5.97;1.17;;;;;;;4.67;63.76;101296.97;4869215;29;20046;-96
2022/01/20 13:55:18;;;;;;;6.32;1.10;;;;;;;5.13;61.70;101318.41;4886046;29;20499;-93
2022/01/20 13:58:23;;;;;;;5.38;1.17;;;;;;;5.42;62.40;101349.63;4910453;29;20032;-93
2022/01/20 14:00:57;;;;;;;5.63;1.10;;;;;;;5.07;64.29;101314.09;4902490;29;20052;-91
2022/01/20 14:04:37;;;;;;;4.75;1.20;;;;;;;4.94;67.70;101362.34;4919173;28;20065;-93
2022/01/20 14:16:32;;;;;;;5.88;1.40;;;;;;;4.35;70.02;101307.72;5534207;23;20338;-95
2022/01/20 14:45:39;;;;;;;11.73;1.80;;;;;;;4.62;61.36;101380.94;5436735;23;20266;-94
2022/01/20 15:01:49;;;;;;;7.68;2.15;;;;;;;3.76;66.35;101343.00;5036802;23;20185;-94
2022/01/20 15:04:37;;;;;;;6.60;1.92;;;;;;;4.12;65.89;101410.06;5445249;23;20122;-93
2022/01/20 15:10:21;;;;;;;8.65;2.00;;;;;;;3.93;66.71;101390.97;5927788;23;20374;-91
2022/01/20 15:13:05;;;;;;;9.55;1.98;;;;;;;3.45;67.38;101327.41;4959548;23;20094;-92
2022/01/20 15:27:14;;;;;;;12.93;2.60;;;;;;;3.45;70.08;101379.75;5824845;23;20031;-95
2022/01/20 15:30:45;;;;;;;;;;;;;;;;;;;;;
2022/01/20 16:08:52;;;;;;;12.05;2.90;;;;;;;3.23;69.46;101370.19;4953508;23;20065;-95
2022/01/20 16:11:34;;;;;;;13.07;3.00;;;;;;;3.10;69.51;101356.25;5933939;23;20021;-96
2022/01/20 16:14:18;;;;;;;10.82;2.30;;;;;;;3.23;69.50;101400.72;5228638;23;20021;-94
2022/01/20 16:25:28;;;;;;;10.57;2.75;;;;;;;2.89;71.18;101371.94;5818521;23;20293;-94
2022/01/20 16:40:51;;;;;;;8.98;3.15;;;;;;;3.14;72.69;101451.34;5731747;23;20051;31
2022/01/20 16:46:37;;;;;;;16.63;2.90;;;;;;;3.17;72.28;101467.03;5732426;23;20166;-95
2022/01/20 16:49:27;;;;;;;11.82;2.67;;;;;;;2.79;71.74;101417.31;5437554;23;20131;-96
2022/01/20 16:52:11;;;;;;;11.75;2.80;;;;;;;3.15;70.39;101464.41;4940247;29;20127;-95
2022/01/20 16:55:10;;;;;;;13.18;2.53;;;;;;;2.97;70.58;101445.22;4957724;28;20091;-95
2022/01/20 16:57:43;;;;;;;9.88;2.65;;;;;;;3.13;71.10;101475.78;4930202;29;20052;-95
2022/01/20 17:00:19;;;;;;;7.63;2.05;;;;;;;3.07;70.16;101445.22;5062070;23;20034;-94
2022/01/20 17:05:26;;;;;;;;;;;;;;;3.20;70.67;101484.47;4950474;28;20270;-93
2022/01/20 17:08:28;;;;;;;9.60;2.25;;;;;;;3.07;71.64;101499.31;4940903;28;19930;-95
2022/01/20 17:11:25;;;;;;;10.07;3.22;;;;;;;2.60;72.36;101428.59;4959526;28;20034;-94
2022/01/20 17:14:41;;;;;;;5.45;2.53;;;;;;;2.97;72.29;101498.44;5172196;23;21415;31
2022/01/20 17:17:10;;;;;;;6.25;2.20;;;;;;;2.63;70.67;101439.06;5149757;23;20051;-94
2022/01/20 17:19:46;;;;;;;10.63;2.95;;;;;;;2.83;70.69;101473.13;4989310;28;20057;-95